logo
Rechercher aéroport 
image banner adimage banner adimage banner ad
image banner ad

YLABA - Lady Barron Grass

Situé à Lady Barron, Australia

ICAO - , IATA -

Données fournies par Airmate  

Information générale

Coordonnées: S40°12'23" E148°14'8"
Élévation : 42 feet MSL.
Variation magnétique : 14° East
Voir autres Aéroports à Tasmania

Données opérationnelles

Special qualification required
Heure actuelle UTC:
Heure actuelle locale:
Météo à : - ( 0 km )
METAR: KDVP 281933Z AUTO 33012G16KT 10SM SCT046 BKN055 BKN070 18/07 A3016 RMK AO2 T01750074
Voir NOTAMs / SUP AIP / TFR affectant cet aéroport [VIEW]
Fréquences de communication: [VIEW]

Pistes:

Identifiant RWYQFULongueur (ft)Largeur (ft)SurfaceLDA (ft)
27289°2115106GRAS
09109°2115106GRAS
33345°329985GRAS
15165°329985GRAS

Coordonnées de l'aéroport

Adresse: Lady Barron Australia

Vue satellite de YLABA